Time;durP1;ratioP1;P1;durP2;ratioP2;P2;SDS_P1;SDS_P2;PMS_P1;PMS_P2;Temp;Humidity;BMP_temperature;BMP_pressure;BME280_temperature;BME280_humidity;BME280_pressure;Samples;Min_cycle;Max_cycle;Signal;HPM_P1;HPM_P2
2021/03/03 00:00:13;;;;;;;14.93;8.20;;;10.00;1.00;;;;;;5106546;28;20232;-74
2021/03/03 00:02:40;;;;;;;12.93;8.63;;;10.00;1.00;;;;;;5110880;28;20445;-75
2021/03/03 00:05:08;;;;;;;15.10;10.80;;;9.80;1.00;;;;;;5111419;28;20438;-75
2021/03/03 00:07:36;;;;;;;14.83;10.53;;;10.30;1.00;;;;;;5111739;28;20219;-75
2021/03/03 00:10:04;;;;;;;19.30;10.40;;;10.10;1.00;;;;;;5106897;28;20445;-73
2021/03/03 00:12:31;;;;;;;14.17;10.77;;;10.00;1.00;;;;;;5107827;28;20874;-74
2021/03/03 00:14:58;;;;;;;17.60;9.20;;;10.00;1.00;;;;;;5101808;28;20448;-73
2021/03/03 00:17:26;;;;;;;17.40;10.30;;;10.00;1.00;;;;;;5112085;28;20488;-74
2021/03/03 00:19:53;;;;;;;13.80;9.10;;;9.90;1.00;;;;;;5108914;28;20455;-75
2021/03/03 00:22:20;;;;;;;17.00;9.90;;;9.80;1.00;;;;;;5113356;28;20448;-75
2021/03/03 00:24:47;;;;;;;14.53;10.37;;;9.80;1.00;;;;;;5094208;28;20456;-74
2021/03/03 00:27:14;;;;;;;14.00;9.10;;;9.80;1.00;;;;;;5127552;27;20468;-76
2021/03/03 00:29:41;;;;;;;14.57;8.43;;;9.80;1.00;;;;;;5109338;28;22225;-76
2021/03/03 00:32:08;;;;;;;13.67;9.23;;;9.70;1.00;;;;;;5111971;28;20444;-76
2021/03/03 00:34:37;;;;;;;11.70;7.90;;;9.70;1.00;;;;;;5110899;28;20525;-76
2021/03/03 00:37:04;;;;;;;16.60;9.77;;;9.70;1.00;;;;;;5111665;28;20486;-75
2021/03/03 00:39:31;;;;;;;15.53;9.17;;;9.70;1.00;;;;;;5106880;28;20436;-76
2021/03/03 00:41:59;;;;;;;16.60;8.90;;;9.70;1.00;;;;;;5111409;28;20499;-75
2021/03/03 00:44:26;;;;;;;13.67;9.33;;;9.60;1.00;;;;;;5112064;28;20465;-75
2021/03/03 00:46:53;;;;;;;12.23;8.33;;;9.60;1.00;;;;;;5110941;28;20536;-77
2021/03/03 00:49:20;;;;;;;16.17;8.43;;;9.70;1.00;;;;;;5108885;28;20559;-75
2021/03/03 00:51:48;;;;;;;13.63;8.97;;;9.60;1.00;;;;;;5093165;28;20963;-76
2021/03/03 00:54:15;;;;;;;12.30;8.50;;;9.60;1.00;;;;;;5100335;27;20454;-75
2021/03/03 00:56:42;;;;;;;13.40;9.30;;;9.70;1.00;;;;;;5111556;28;21011;-75
2021/03/03 00:59:09;;;;;;;13.87;8.83;;;9.50;1.00;;;;;;5111817;28;20505;-77
2021/03/03 01:01:37;;;;;;;11.80;7.70;;;9.60;1.00;;;;;;5088350;28;20542;-76
2021/03/03 01:04:05;;;;;;;9.60;7.67;;;9.50;1.00;;;;;;5110038;28;20454;-77
2021/03/03 01:06:32;;;;;;;11.43;8.00;;;9.50;1.00;;;;;;5109278;28;20596;-76
2021/03/03 01:09:00;;;;;;;13.47;9.00;;;9.60;1.00;;;;;;5109813;28;20456;-76
2021/03/03 01:11:27;;;;;;;17.53;9.03;;;9.50;1.00;;;;;;5111015;28;20455;-75
2021/03/03 01:13:54;;;;;;;14.50;9.40;;;9.50;1.00;;;;;;5099313;28;20498;-75
2021/03/03 01:16:21;;;;;;;12.47;8.07;;;9.50;1.00;;;;;;5108623;28;20984;-76
2021/03/03 01:18:48;;;;;;;10.60;8.40;;;9.50;1.00;;;;;;5109486;28;20513;-74
2021/03/03 01:21:16;;;;;;;13.00;9.40;;;9.70;1.00;;;;;;5108650;28;20455;-75
2021/03/03 01:23:43;;;;;;;12.00;7.87;;;9.50;1.00;;;;;;5111343;28;21101;-76
2021/03/03 01:26:11;;;;;;;13.80;9.20;;;9.50;1.00;;;;;;5108885;28;20498;-74
2021/03/03 01:28:38;;;;;;;9.83;7.23;;;9.40;1.00;;;;;;5110885;28;20830;-73
2021/03/03 01:31:05;;;;;;;13.50;8.00;;;9.40;1.00;;;;;;5109194;28;20519;-74
2021/03/03 01:33:32;;;;;;;13.00;7.77;;;9.40;1.00;;;;;;5110965;28;20444;-74
2021/03/03 01:36:00;;;;;;;11.93;8.07;;;9.40;1.00;;;;;;5107927;28;20484;-74
2021/03/03 01:38:27;;;;;;;13.30;8.37;;;9.40;1.00;;;;;;5091516;28;20460;-74
2021/03/03 01:40:55;;;;;;;11.27;7.73;;;9.40;1.00;;;;;;5108911;28;20460;-75
2021/03/03 01:43:24;;;;;;;15.30;8.53;;;9.40;1.00;;;;;;5109835;28;20815;-74
2021/03/03 01:45:52;;;;;;;11.40;8.30;;;9.30;1.00;;;;;;5108171;28;20463;-74
2021/03/03 01:48:19;;;;;;;10.87;8.07;;;9.40;1.00;;;;;;5110002;28;20539;-75
2021/03/03 01:50:47;;;;;;;12.90;9.07;;;9.20;1.00;;;;;;5108706;28;20448;-73
2021/03/03 01:53:15;;;;;;;12.57;9.93;;;9.30;1.00;;;;;;5109778;28;20817;-74
2021/03/03 01:55:43;;;;;;;11.03;7.27;;;9.30;1.00;;;;;;5090616;28;20508;-75
2021/03/03 01:58:10;;;;;;;12.20;8.37;;;9.30;1.00;;;;;;5109153;28;20444;-73
2021/03/03 02:00:38;;;;;;;11.73;7.83;;;9.30;1.00;;;;;;5110573;28;20468;-73
2021/03/03 02:03:07;;;;;;;10.83;8.20;;;9.30;1.00;;;;;;5109904;28;20447;-75
2021/03/03 02:05:34;;;;;;;14.03;8.50;;;9.30;1.00;;;;;;5108146;28;20450;-74
2021/03/03 02:08:06;;;;;;;12.83;7.60;;;9.20;1.00;;;;;;5110129;28;20494;-74
2021/03/03 02:10:41;;;;;;;13.80;7.57;;;9.20;1.00;;;;;;5108161;28;20555;-74
2021/03/03 02:13:13;;;;;;;15.70;7.67;;;9.30;1.00;;;;;;5108478;28;20535;-74
2021/03/03 02:15:44;;;;;;;12.57;7.83;;;9.20;1.00;;;;;;5105959;28;20451;-74
2021/03/03 02:18:12;;;;;;;10.30;8.30;;;9.20;1.00;;;;;;5109216;28;20491;-74
2021/03/03 02:20:50;;;;;;;12.03;7.43;;;9.20;1.00;;;;;;5100576;28;20456;-73
2021/03/03 02:23:25;;;;;;;14.50;8.57;;;9.20;1.00;;;;;;5109151;28;20947;-75
2021/03/03 02:25:53;;;;;;;14.60;7.40;;;9.20;1.00;;;;;;5107074;28;20446;-75
2021/03/03 02:28:21;;;;;;;11.50;7.50;;;9.20;1.00;;;;;;5106670;28;20456;-73
2021/03/03 02:30:48;;;;;;;12.00;7.70;;;9.10;1.00;;;;;;5109522;28;20456;-72
2021/03/03 02:33:18;;;;;;;15.47;8.40;;;9.20;1.00;;;;;;5088913;28;20468;-73
2021/03/03 02:35:47;;;;;;;13.10;7.77;;;9.10;1.00;;;;;;5105038;28;20446;-73
2021/03/03 02:38:15;;;;;;;13.10;7.90;;;9.10;1.00;;;;;;5109489;28;21084;-73
2021/03/03 02:40:43;;;;;;;11.90;7.60;;;9.10;1.00;;;;;;5108700;28;20489;-75
2021/03/03 02:43:16;;;;;;;13.50;7.90;;;9.10;1.00;;;;;;5108539;28;20462;-74
2021/03/03 02:45:46;;;;;;;12.53;8.33;;;9.10;1.00;;;;;;5108102;28;20452;-74
2021/03/03 02:48:14;;;;;;;9.00;6.40;;;9.10;1.00;;;;;;5108131;28;20435;-74
2021/03/03 02:50:41;;;;;;;11.00;7.47;;;9.10;1.00;;;;;;5109116;28;20436;-74
2021/03/03 02:53:09;;;;;;;10.67;7.87;;;9.20;1.00;;;;;;5124286;27;20498;-74
2021/03/03 02:55:36;;;;;;;19.07;8.10;;;9.40;1.00;;;;;;5108436;28;20443;-73
2021/03/03 02:58:05;;;;;;;10.93;7.87;;;9.40;1.00;;;;;;5108098;28;20488;-74
2021/03/03 03:00:35;;;;;;;15.30;8.17;;;9.20;1.00;;;;;;5097741;28;20445;-73
2021/03/03 03:03:12;;;;;;;12.60;8.23;;;9.10;1.00;;;;;;5106768;28;20475;-75
2021/03/03 03:05:41;;;;;;;11.20;7.63;;;9.30;1.00;;;;;;5106334;28;20466;-75
2021/03/03 03:08:14;;;;;;;15.20;7.97;;;9.20;1.00;;;;;;5104522;28;20509;-75
2021/03/03 03:10:42;;;;;;;12.90;8.67;;;9.20;1.00;;;;;;5107559;28;20477;-75
2021/03/03 03:13:14;;;;;;;12.23;8.37;;;9.20;1.00;;;;;;5106432;28;20460;-75
2021/03/03 03:15:43;;;;;;;10.47;7.20;;;9.10;1.00;;;;;;5107297;28;20464;-75
2021/03/03 03:18:17;;;;;;;13.00;8.43;;;9.10;1.00;;;;;;5107258;28;20499;-73
2021/03/03 03:20:46;;;;;;;11.07;7.63;;;9.10;1.00;;;;;;5105843;28;20520;-73
2021/03/03 03:23:15;;;;;;;12.33;7.77;;;9.10;1.00;;;;;;5107908;28;20967;-73
2021/03/03 03:25:46;;;;;;;11.13;7.33;;;9.10;1.00;;;;;;5107464;28;20536;-73
2021/03/03 03:28:13;;;;;;;11.33;7.47;;;9.10;1.00;;;;;;5106018;28;20455;-72
2021/03/03 03:30:42;;;;;;;18.70;9.73;;;9.00;1.00;;;;;;5091201;28;20981;-75
2021/03/03 03:33:12;;;;;;;13.63;8.40;;;9.00;1.00;;;;;;5106378;28;20466;-75
2021/03/03 03:35:40;;;;;;;9.37;7.00;;;9.00;1.00;;;;;;5107295;28;20841;-74
2021/03/03 03:38:07;;;;;;;11.23;8.00;;;8.90;1.00;;;;;;5107219;28;20481;-74
2021/03/03 03:40:35;;;;;;;13.93;7.67;;;9.00;1.00;;;;;;5106959;28;20451;-73
2021/03/03 03:43:05;;;;;;;12.17;7.70;;;9.00;1.00;;;;;;5108129;28;20464;-74
2021/03/03 03:45:34;;;;;;;12.73;8.93;;;9.00;1.00;;;;;;5124573;28;20896;-75
2021/03/03 03:48:02;;;;;;;11.53;7.83;;;9.10;1.00;;;;;;5107563;28;21032;-73
2021/03/03 03:50:30;;;;;;;15.47;8.63;;;9.00;1.00;;;;;;5091241;28;20471;-73
2021/03/03 03:52:58;;;;;;;21.17;8.20;;;8.90;1.00;;;;;;5107103;28;20810;-73
2021/03/03 03:55:30;;;;;;;12.87;8.07;;;9.00;1.00;;;;;;5108467;28;20454;-74
2021/03/03 03:57:57;;;;;;;13.27;8.07;;;8.90;1.00;;;;;;5107305;28;20482;-73
2021/03/03 04:00:26;;;;;;;13.30;9.00;;;8.90;1.00;;;;;;5105745;28;20462;-73
2021/03/03 04:02:53;;;;;;;12.57;7.93;;;8.90;1.00;;;;;;5106765;28;20903;-73
2021/03/03 04:05:22;;;;;;;12.17;7.33;;;8.80;1.00;;;;;;5089947;28;20530;-73
2021/03/03 04:07:49;;;;;;;11.10;8.07;;;8.80;1.00;;;;;;5105263;28;20463;-73
2021/03/03 04:10:19;;;;;;;13.47;8.37;;;8.80;1.00;;;;;;5089936;28;20510;-73
2021/03/03 04:12:46;;;;;;;11.20;8.07;;;8.90;1.00;;;;;;5108873;28;20442;-73
2021/03/03 04:15:14;;;;;;;16.83;8.73;;;9.00;1.00;;;;;;5107341;28;20491;-74
2021/03/03 04:17:41;;;;;;;13.17;7.80;;;9.00;1.00;;;;;;5108435;28;20580;-74
2021/03/03 04:20:15;;;;;;;13.80;8.07;;;9.00;1.00;;;;;;5105075;28;20804;-73
2021/03/03 04:22:43;;;;;;;14.60;8.57;;;9.00;1.00;;;;;;5107894;28;21024;-74
2021/03/03 04:25:12;;;;;;;11.07;7.47;;;9.00;1.00;;;;;;5108456;28;20463;-74
2021/03/03 04:27:39;;;;;;;11.63;8.13;;;9.00;1.00;;;;;;5099676;28;20474;-73
2021/03/03 04:30:09;;;;;;;12.37;8.37;;;8.90;1.00;;;;;;5105849;28;20451;-74
2021/03/03 04:32:37;;;;;;;11.77;8.50;;;9.00;1.00;;;;;;5108965;28;21020;-73
2021/03/03 04:35:06;;;;;;;10.90;8.10;;;9.00;1.00;;;;;;5102109;28;20459;-74
2021/03/03 04:37:33;;;;;;;12.13;7.33;;;9.00;1.00;;;;;;5090647;28;20508;-74
2021/03/03 04:40:01;;;;;;;16.33;9.17;;;8.90;1.00;;;;;;5107213;28;20448;-76
2021/03/03 04:42:28;;;;;;;11.07;7.70;;;9.00;1.00;;;;;;5107578;28;20456;-75
2021/03/03 04:44:55;;;;;;;13.90;8.27;;;9.00;1.00;;;;;;5110824;28;20491;-75
2021/03/03 04:47:22;;;;;;;13.83;9.87;;;9.00;1.00;;;;;;5093636;28;20471;-75
2021/03/03 04:49:50;;;;;;;14.90;8.10;;;9.00;1.00;;;;;;5110649;28;20462;-75
2021/03/03 04:52:17;;;;;;;14.30;8.80;;;9.10;1.00;;;;;;5090730;28;20453;-76
2021/03/03 04:54:44;;;;;;;11.53;7.67;;;9.20;1.00;;;;;;5094857;28;20441;-75
2021/03/03 04:57:12;;;;;;;11.33;6.80;;;9.10;1.00;;;;;;5111299;28;20482;-75
2021/03/03 04:59:39;;;;;;;13.03;8.23;;;9.00;1.00;;;;;;5110502;28;20459;-76
2021/03/03 05:02:07;;;;;;;13.50;8.50;;;9.00;1.00;;;;;;5108918;28;20443;-73
2021/03/03 05:04:35;;;;;;;10.40;7.60;;;8.90;1.00;;;;;;5103648;28;20452;-74
2021/03/03 05:07:02;;;;;;;11.77;7.60;;;8.90;2.30;;;;;;5107970;27;20474;-75
2021/03/03 05:09:29;;;;;;;13.87;9.10;;;8.90;1.00;;;;;;5092432;28;21209;-75
2021/03/03 05:11:56;;;;;;;9.47;6.97;;;8.80;1.00;;;;;;5093214;28;20505;-75
2021/03/03 05:14:24;;;;;;;12.13;7.90;;;8.70;1.00;;;;;;5076817;28;20456;-73
2021/03/03 05:16:51;;;;;;;10.10;8.07;;;8.80;1.00;;;;;;5110353;28;20528;-74
2021/03/03 05:19:19;;;;;;;11.03;7.30;;;8.80;1.00;;;;;;5108901;28;20508;-76
2021/03/03 05:21:46;;;;;;;13.00;8.07;;;8.90;1.00;;;;;;5111207;28;20519;-75
2021/03/03 05:24:13;;;;;;;12.90;7.60;;;8.90;1.00;;;;;;5112724;28;20482;-75
2021/03/03 05:26:40;;;;;;;10.27;7.90;;;9.00;1.00;;;;;;5110426;28;20547;-75
2021/03/03 05:29:07;;;;;;;12.20;7.40;;;9.00;1.00;;;;;;5090311;28;20447;-74
2021/03/03 05:31:36;;;;;;;12.17;7.70;;;9.00;1.00;;;;;;5113019;28;20472;-75
2021/03/03 05:34:04;;;;;;;11.67;7.40;;;9.00;1.00;;;;;;5111593;28;20918;-73
2021/03/03 05:36:31;;;;;;;10.87;7.07;;;9.00;1.00;;;;;;5109201;27;21029;-75
2021/03/03 05:38:58;;;;;;;11.10;8.23;;;8.80;1.00;;;;;;5109140;28;20444;-74
2021/03/03 05:41:26;;;;;;;12.07;8.63;;;8.70;1.00;;;;;;5106950;27;20491;-76
2021/03/03 05:43:54;;;;;;;10.00;7.67;;;8.70;1.00;;;;;;5110478;28;20446;-76
2021/03/03 05:46:21;;;;;;;11.40;9.10;;;8.70;1.00;;;;;;5108615;28;20474;-76
2021/03/03 05:48:55;;;;;;;11.40;8.00;;;8.80;1.00;;;;;;5090756;28;20459;-73
2021/03/03 05:51:24;;;;;;;13.83;8.87;;;8.70;1.00;;;;;;5092172;28;20490;-74
2021/03/03 05:53:51;;;;;;;16.80;9.17;;;8.80;1.00;;;;;;5109042;28;20449;-74
2021/03/03 05:56:22;;;;;;;10.63;7.87;;;8.90;1.00;;;;;;5107401;28;20482;-74
2021/03/03 05:58:49;;;;;;;12.63;8.07;;;8.70;1.00;;;;;;5104857;28;20515;-72
2021/03/03 06:01:17;;;;;;;11.27;9.60;;;8.70;1.00;;;;;;5113572;27;20539;-74
2021/03/03 06:03:45;;;;;;;12.40;8.50;;;8.70;1.00;;;;;;5106009;28;20454;-75
2021/03/03 06:06:14;;;;;;;14.90;7.23;;;8.80;1.00;;;;;;5101145;27;20566;-74
2021/03/03 06:08:41;;;;;;;12.50;7.77;;;8.80;1.00;;;;;;5108879;28;20439;-73
2021/03/03 06:11:08;;;;;;;10.80;7.97;;;8.90;1.00;;;;;;5109603;28;20821;-76
2021/03/03 06:13:35;;;;;;;10.33;8.00;;;8.80;1.00;;;;;;5109212;28;20470;-74
2021/03/03 06:16:03;;;;;;;12.80;8.40;;;8.70;1.00;;;;;;5109870;28;20476;-73
2021/03/03 06:18:31;;;;;;;14.45;7.53;;;8.60;1.00;;;;;;5108735;28;20755;-73
2021/03/03 06:20:58;;;;;;;11.87;9.07;;;8.70;1.00;;;;;;5108591;28;20745;-73
2021/03/03 06:23:27;;;;;;;23.23;8.07;;;8.70;1.00;;;;;;5099033;28;20467;-75
2021/03/03 06:26:10;;;;;;;13.87;9.03;;;8.70;1.00;;;;;;5108966;28;20459;-75
2021/03/03 06:28:40;;;;;;;10.33;7.70;;;8.60;1.00;;;;;;5109409;28;20433;-74
2021/03/03 06:31:26;;;;;;;11.57;8.10;;;8.60;1.00;;;;;;5109597;28;20817;-75
2021/03/03 06:34:06;;;;;;;12.50;8.93;;;8.60;1.00;;;;;;5090820;28;20439;-74
2021/03/03 06:36:33;;;;;;;9.93;8.83;;;8.80;1.00;;;;;;5089336;28;20279;-75
2021/03/03 06:39:22;;;;;;;13.27;8.43;;;8.70;1.00;;;;;;5103489;28;20470;-76
2021/03/03 06:41:50;;;;;;;10.87;8.30;;;8.70;1.00;;;;;;5106983;28;20537;-74
2021/03/03 06:44:18;;;;;;;15.17;9.67;;;8.70;1.00;;;;;;5108207;28;20442;-76
2021/03/03 06:47:02;;;;;;;12.50;8.80;;;8.80;1.00;;;;;;5102254;28;20476;-76
2021/03/03 06:49:29;;;;;;;13.87;8.67;;;8.80;1.00;;;;;;5106704;28;20981;-75
2021/03/03 06:51:57;;;;;;;10.27;7.77;;;8.70;1.00;;;;;;5087843;28;20467;-75
2021/03/03 06:54:25;;;;;;;11.60;8.87;;;8.70;1.00;;;;;;5103726;28;20904;-76
2021/03/03 06:56:54;;;;;;;12.40;8.60;;;8.70;1.00;;;;;;5100071;28;21401;-76
2021/03/03 06:59:23;;;;;;;12.67;8.43;;;8.70;1.00;;;;;;5081750;28;20447;-74
2021/03/03 07:01:51;;;;;;;11.93;8.90;;;8.70;1.00;;;;;;5098697;28;20463;-74
2021/03/03 07:04:25;;;;;;;12.77;8.83;;;8.80;1.00;;;;;;5122584;27;20992;-74
2021/03/03 07:06:55;;;;;;;12.27;9.67;;;8.80;1.00;;;;;;5120674;27;20568;-74
2021/03/03 07:09:26;;;;;;;13.47;9.03;;;8.80;1.00;;;;;;5104503;28;20439;-75
2021/03/03 07:12:05;;;;;;;11.67;9.20;;;9.00;2.20;;;;;;5113689;27;20469;-74
2021/03/03 07:14:32;;;;;;;13.70;9.37;;;8.80;3.30;;;;;;5088811;28;20447;-75
2021/03/03 07:17:13;;;;;;;15.90;9.90;;;8.70;2.80;;;;;;5108361;28;20469;-75
2021/03/03 07:19:43;;;;;;;14.13;10.00;;;8.80;3.50;;;;;;5107435;28;20475;-76
2021/03/03 07:22:24;;;;;;;14.93;9.53;;;8.80;3.80;;;;;;5100533;28;20452;-75
2021/03/03 07:24:53;;;;;;;13.67;8.70;;;8.90;6.90;;;;;;5105648;28;20596;-74
2021/03/03 07:27:21;;;;;;;14.73;9.50;;;8.80;6.70;;;;;;5106358;28;20802;-75
2021/03/03 07:29:49;;;;;;;13.20;8.57;;;8.90;6.20;;;;;;5122607;27;20450;-75
2021/03/03 07:32:18;;;;;;;13.23;9.00;;;8.80;7.20;;;;;;5104254;28;20456;-76
2021/03/03 07:34:51;;;;;;;18.17;10.30;;;8.90;7.30;;;;;;5099588;28;21145;-76
2021/03/03 07:37:20;;;;;;;15.40;9.37;;;9.00;8.60;;;;;;5098355;28;20747;-75
2021/03/03 07:39:56;;;;;;;15.83;8.83;;;8.90;9.30;;;;;;5103849;28;20463;-74
2021/03/03 07:42:27;;;;;;;14.90;9.93;;;9.00;12.70;;;;;;5104434;28;20450;-75
2021/03/03 07:44:59;;;;;;;14.03;9.13;;;9.10;11.90;;;;;;5096751;28;20485;-77
2021/03/03 07:47:30;;;;;;;11.90;8.70;;;9.10;10.90;;;;;;5103599;28;20463;-76
2021/03/03 07:50:01;;;;;;;16.20;9.43;;;9.10;11.70;;;;;;5112977;28;20878;-75
2021/03/03 07:52:29;;;;;;;16.70;11.23;;;9.00;12.70;;;;;;5091390;28;20510;-76
2021/03/03 07:54:59;;;;;;;11.97;9.20;;;9.10;13.90;;;;;;5103734;28;20808;-75
2021/03/03 07:57:28;;;;;;;13.90;9.90;;;9.20;13.90;;;;;;5107135;28;20536;-76
2021/03/03 07:59:56;;;;;;;14.97;9.10;;;9.30;13.50;;;;;;5103201;28;20486;-75
2021/03/03 08:02:42;;;;;;;14.47;9.60;;;9.30;15.70;;;;;;5108686;28;20491;-75
2021/03/03 08:05:11;;;;;;;15.30;9.77;;;9.30;14.10;;;;;;5085226;28;20448;-75
2021/03/03 08:07:39;;;;;;;15.53;10.63;;;9.40;15.60;;;;;;5097565;28;20469;-74
2021/03/03 08:10:32;;;;;;;13.70;9.63;;;9.30;16.60;;;;;;5083186;28;20450;-75
2021/03/03 08:13:02;;;;;;;15.13;10.30;;;9.40;19.90;;;;;;5100814;28;20550;-75
2021/03/03 08:15:41;;;;;;;15.80;12.03;;;9.40;19.90;;;;;;5097248;28;20476;-74
2021/03/03 08:18:23;;;;;;;13.53;10.60;;;9.60;20.60;;;;;;5099225;28;20484;-75
2021/03/03 08:20:52;;;;;;;18.07;12.90;;;9.50;22.00;;;;;;5089375;28;20455;-74
2021/03/03 08:23:40;;;;;;;15.80;10.20;;;9.60;21.30;;;;;;5102771;28;20462;-75
2021/03/03 08:26:11;;;;;;;21.70;11.30;;;9.60;20.60;;;;;;5104738;27;20480;-75
2021/03/03 08:28:39;;;;;;;15.57;11.70;;;9.70;20.00;;;;;;5102432;28;20452;-76
2021/03/03 08:31:36;;;;;;;17.00;9.83;;;9.70;18.30;;;;;;5084712;28;20504;-76
2021/03/03 08:34:09;;;;;;;19.73;11.70;;;9.80;18.60;;;;;;5098364;28;20490;-76
2021/03/03 08:36:56;;;;;;;17.70;12.17;;;9.90;18.70;;;;;;5102318;28;20502;-75
2021/03/03 08:39:40;;;;;;;18.20;11.87;;;9.80;17.20;;;;;;5101778;28;20479;-75
2021/03/03 08:42:35;;;;;;;17.53;11.70;;;9.90;16.50;;;;;;5100530;28;20941;-75
2021/03/03 08:45:14;;;;;;;17.80;12.13;;;9.90;19.40;;;;;;5077530;28;21055;-76
2021/03/03 08:47:57;;;;;;;18.83;12.20;;;9.90;21.70;;;;;;5089743;28;20828;-75
2021/03/03 08:50:53;;;;;;;18.33;11.97;;;10.00;21.10;;;;;;5111987;28;21302;-75
2021/03/03 08:53:28;;;;;;;20.07;11.97;;;10.00;21.20;;;;;;5062733;28;20463;-75
2021/03/03 08:55:57;;;;;;;16.37;10.63;;;10.00;24.10;;;;;;5110981;28;20432;-76
2021/03/03 08:58:52;;;;;;;17.17;10.27;;;10.10;23.30;;;;;;5108018;28;20475;-75
2021/03/03 09:01:40;;;;;;;17.40;10.37;;;10.10;23.30;;;;;;5092347;28;20448;-75
2021/03/03 09:04:08;;;;;;;16.27;11.10;;;10.20;22.70;;;;;;5105348;28;20795;-75
2021/03/03 09:06:37;;;;;;;19.00;11.37;;;10.20;24.90;;;;;;5102269;28;20536;-76
2021/03/03 09:09:04;;;;;;;13.03;10.00;;;10.40;25.80;;;;;;5072048;28;20461;-75
2021/03/03 09:11:31;;;;;;;16.93;11.30;;;10.30;27.10;;;;;;5075017;28;20455;-75
2021/03/03 09:14:00;;;;;;;15.23;10.80;;;10.30;25.90;;;;;;5088729;28;20471;-74
2021/03/03 09:16:28;;;;;;;17.03;11.20;;;10.30;24.40;;;;;;5087540;28;21490;-75
2021/03/03 09:19:06;;;;;;;18.43;12.00;;;10.40;24.10;;;;;;5092821;28;20479;-74
2021/03/03 09:21:33;;;;;;;18.37;12.17;;;10.50;22.80;;;;;;5086155;28;20449;-74
2021/03/03 09:24:11;;;;;;;15.57;11.03;;;10.50;20.70;;;;;;5088284;28;20466;-74
2021/03/03 09:26:39;;;;;;;17.07;12.77;;;10.50;21.10;;;;;;5088304;28;20475;-74
2021/03/03 09:29:07;;;;;;;19.60;12.07;;;10.50;22.30;;;;;;5090008;28;20456;-74
2021/03/03 09:31:35;;;;;;;13.97;12.40;;;10.70;23.70;;;;;;5088549;28;20451;-75
2021/03/03 09:34:04;;;;;;;16.90;11.40;;;10.70;26.10;;;;;;5088641;28;21417;-74
2021/03/03 09:36:32;;;;;;;18.60;11.17;;;10.80;26.20;;;;;;5086901;28;21016;-74
2021/03/03 09:39:01;;;;;;;16.60;10.63;;;10.80;27.20;;;;;;5088038;28;20525;-75
2021/03/03 09:41:28;;;;;;;14.83;10.00;;;10.90;27.50;;;;;;5090529;28;20514;-74
2021/03/03 09:44:01;;;;;;;15.07;11.33;;;11.00;27.00;;;;;;5092542;28;20884;-73
2021/03/03 09:46:44;;;;;;;11.90;9.97;;;11.10;27.70;;;;;;5091445;28;20470;-73
2021/03/03 09:49:21;;;;;;;94.60;41.90;;;11.20;27.60;;;;;;5091493;27;20480;-74
2021/03/03 09:51:49;;;;;;;27.80;16.10;;;11.20;28.40;;;;;;5107779;27;20459;-74
2021/03/03 09:54:31;;;;;;;15.70;11.60;;;11.20;29.10;;;;;;5100220;28;20444;-73
2021/03/03 09:57:12;;;;;;;19.80;11.90;;;11.30;30.50;;;;;;5101544;28;21941;-74
2021/03/03 09:59:41;;;;;;;17.63;13.37;;;11.40;29.90;;;;;;5097033;28;20475;-73
2021/03/03 10:02:10;;;;;;;13.60;10.03;;;11.40;26.50;;;;;;5097506;28;20519;-75
2021/03/03 10:04:40;;;;;;;15.23;9.83;;;11.50;27.00;;;;;;5098169;28;20452;-75
2021/03/03 10:07:21;;;;;;;14.63;11.57;;;11.50;25.30;;;;;;5079702;28;20479;-74
2021/03/03 10:09:52;;;;;;;16.80;10.13;;;11.60;25.00;;;;;;5096347;28;20452;-77
2021/03/03 10:12:21;;;;;;;16.23;9.30;;;11.60;24.10;;;;;;5097599;28;21030;-74
2021/03/03 10:14:56;;;;;;;18.43;10.57;;;11.80;23.20;;;;;;5106626;27;20445;-75
2021/03/03 10:17:35;;;;;;;13.50;10.50;;;11.80;26.90;;;;;;5116381;27;20506;-75
2021/03/03 10:20:06;;;;;;;12.50;8.20;;;11.80;25.60;;;;;;5105680;28;20461;-75
2021/03/03 10:22:33;;;;;;;13.70;9.60;;;11.90;26.50;;;;;;5099496;28;20866;-74
2021/03/03 10:25:03;;;;;;;11.97;7.97;;;12.00;23.60;;;;;;5098951;28;20476;-74
2021/03/03 10:27:36;;;;;;;12.20;10.17;;;12.00;19.90;;;;;;5106176;28;20469;-74
2021/03/03 10:30:23;;;;;;;10.70;7.53;;;12.10;20.10;;;;;;5105249;28;20633;-76
2021/03/03 10:32:53;;;;;;;15.60;10.13;;;12.20;20.20;;;;;;5101765;28;20837;-75
2021/03/03 10:35:22;;;;;;;13.40;9.60;;;12.20;19.80;;;;;;5104588;28;20542;-75
2021/03/03 10:37:49;;;;;;;9.47;7.20;;;12.30;18.90;;;;;;5101212;28;20878;-74
2021/03/03 10:40:18;;;;;;;11.53;8.10;;;12.30;19.40;;;;;;5101890;28;20461;-75
2021/03/03 10:42:46;;;;;;;16.33;11.10;;;12.40;17.90;;;;;;5106713;28;20518;-76
2021/03/03 10:45:21;;;;;;;12.10;9.60;;;12.50;14.80;;;;;;5101764;28;20454;-76
2021/03/03 10:47:49;;;;;;;8.70;7.80;;;12.60;14.90;;;;;;5111423;27;20464;-75
2021/03/03 10:50:33;;;;;;;13.20;7.90;;;12.60;16.10;;;;;;5111963;27;20551;-75
2021/03/03 10:53:03;;;;;;;10.27;7.40;;;12.80;15.10;;;;;;5107645;28;20450;-74
2021/03/03 10:55:35;;;;;;;11.60;6.70;;;12.80;14.50;;;;;;5104129;28;20445;-75
2021/03/03 10:58:11;;;;;;;12.60;8.07;;;12.80;13.90;;;;;;5096358;28;21231;-74
2021/03/03 11:01:00;;;;;;;10.43;7.50;;;12.90;11.80;;;;;;5074987;28;20461;-75
2021/03/03 11:03:28;;;;;;;11.77;8.47;;;12.90;11.60;;;;;;5097950;28;20450;-75
2021/03/03 11:05:58;;;;;;;11.87;7.30;;;13.00;12.40;;;;;;5089652;28;20582;-73
2021/03/03 11:08:27;;;;;;;13.67;8.30;;;13.00;10.60;;;;;;5094506;28;20444;-74
2021/03/03 11:11:04;;;;;;;11.80;7.53;;;13.00;10.00;;;;;;5084230;28;20466;-74
2021/03/03 11:13:32;;;;;;;12.90;8.93;;;13.10;10.10;;;;;;5099330;27;20464;-75
2021/03/03 11:15:59;;;;;;;12.27;8.17;;;13.10;8.90;;;;;;5106266;28;20472;-75
2021/03/03 11:18:27;;;;;;;14.57;8.20;;;13.20;8.50;;;;;;5108203;28;20473;-73
2021/03/03 11:20:54;;;;;;;12.17;8.37;;;13.20;8.40;;;;;;5113356;27;21353;-75
2021/03/03 11:23:22;;;;;;;17.80;9.70;;;13.20;8.30;;;;;;5103569;28;20510;-74
2021/03/03 11:25:50;;;;;;;12.43;8.30;;;13.20;7.30;;;;;;5108618;28;20507;-73
2021/03/03 11:28:19;;;;;;;11.23;8.20;;;13.30;9.40;;;;;;5100258;28;20557;-73
2021/03/03 11:30:46;;;;;;;10.90;7.57;;;13.30;7.90;;;;;;5102088;28;20812;-74
2021/03/03 11:33:13;;;;;;;10.67;7.50;;;13.50;6.90;;;;;;5098231;28;20462;-74
2021/03/03 11:35:40;;;;;;;11.57;7.40;;;13.30;5.60;;;;;;5102811;28;20457;-74
2021/03/03 11:38:10;;;;;;;12.10;7.40;;;13.30;6.20;;;;;;5100104;28;20478;-74
2021/03/03 11:40:39;;;;;;;13.07;7.87;;;13.30;5.70;;;;;;5082563;28;20454;-74
2021/03/03 11:43:06;;;;;;;15.60;8.73;;;13.40;6.40;;;;;;5100058;28;20475;-73
2021/03/03 11:45:34;;;;;;;13.70;8.43;;;13.40;5.60;;;;;;5104018;28;20530;-73
2021/03/03 11:48:01;;;;;;;11.30;7.90;;;13.40;4.60;;;;;;5104353;28;22405;-74
2021/03/03 11:50:29;;;;;;;13.90;8.50;;;13.40;6.90;;;;;;5100481;28;20447;-75
2021/03/03 11:52:56;;;;;;;12.00;8.67;;;13.50;7.20;;;;;;5098403;28;20466;-74
2021/03/03 11:55:23;;;;;;;12.80;7.77;;;13.50;7.20;;;;;;5120530;27;20451;-74
2021/03/03 11:57:55;;;;;;;17.07;8.53;;;13.50;8.10;;;;;;5108634;27;21089;-73
2021/03/03 12:00:22;;;;;;;11.90;7.60;;;13.50;7.40;;;;;;5107066;27;20456;-74
2021/03/03 12:02:53;;;;;;;10.10;7.00;;;13.60;8.30;;;;;;5103127;28;20456;-73
2021/03/03 12:05:21;;;;;;;11.60;7.27;;;13.70;15.10;;;;;;5105280;28;20532;-73
2021/03/03 12:07:48;;;;;;;13.33;7.27;;;13.60;7.20;;;;;;5102917;28;20517;-74
2021/03/03 12:10:15;;;;;;;11.00;6.90;;;13.70;17.70;;;;;;5105956;28;20454;-74
2021/03/03 12:12:43;;;;;;;15.60;7.70;;;13.70;7.10;;;;;;5109711;28;20446;-74
2021/03/03 12:15:11;;;;;;;11.17;7.23;;;13.70;7.20;;;;;;5105863;28;21145;-73
2021/03/03 12:17:38;;;;;;;14.77;7.67;;;13.80;6.20;;;;;;5123292;27;20469;-74
2021/03/03 12:20:27;;;;;;;10.03;5.40;;;13.70;5.10;;;;;;5098290;28;20514;-74
2021/03/03 12:22:55;;;;;;;10.30;7.43;;;13.70;6.40;;;;;;5107864;28;20455;-74
2021/03/03 12:25:22;;;;;;;13.50;8.50;;;13.70;6.10;;;;;;5107526;28;20529;-73
2021/03/03 12:27:49;;;;;;;12.13;7.07;;;13.70;6.40;;;;;;5106109;27;20735;-73
2021/03/03 12:30:18;;;;;;;10.20;7.87;;;13.80;6.80;;;;;;5101172;28;20465;-75
2021/03/03 12:32:45;;;;;;;13.67;8.47;;;13.80;5.30;;;;;;5099176;28;20446;-75
2021/03/03 12:35:13;;;;;;;8.73;7.10;;;13.90;6.10;;;;;;5101131;28;20499;-75
2021/03/03 12:37:41;;;;;;;13.73;7.37;;;13.90;6.90;;;;;;5097261;27;20475;-74
2021/03/03 12:40:08;;;;;;;13.00;6.90;;;13.90;7.60;;;;;;5102645;28;20458;-74
2021/03/03 12:42:36;;;;;;;10.83;7.10;;;13.90;6.50;;;;;;5098861;28;20446;-73
2021/03/03 12:45:04;;;;;;;12.77;7.80;;;14.00;6.50;;;;;;5099032;28;20435;-75
2021/03/03 12:47:32;;;;;;;12.43;7.30;;;14.00;6.90;;;;;;5093183;28;20474;-73
2021/03/03 12:49:59;;;;;;;9.43;7.27;;;14.10;18.00;;;;;;5101638;28;20452;-73
2021/03/03 12:52:27;;;;;;;13.87;7.33;;;14.00;7.30;;;;;;5102718;28;20520;-74
2021/03/03 12:54:54;;;;;;;13.00;7.17;;;14.10;6.90;;;;;;5097566;28;20447;-75
2021/03/03 12:57:21;;;;;;;12.73;7.40;;;14.10;6.60;;;;;;5101241;28;20482;-71
2021/03/03 12:59:49;;;;;;;13.50;7.90;;;14.10;5.60;;;;;;5094852;28;20480;-71
2021/03/03 13:02:16;;;;;;;9.97;7.90;;;14.10;5.90;;;;;;5105964;28;20443;-75